Tiempo atmosférico en la estación meteorológica de Jabaloyas, Teruel (1430 m.)



Fecha
DESCASC
Temp. máxima en grados centígrados (hora)
DESCASC
Temp. mínima en grados centígrados (hora)
DESCASC
Temp. media en grados centígrados
DESCASC
Racha de viento máxima en m/sg (hora)
DESCASC
Velocidad máxima media en intervalos de 10 minutos(hora)
DESCASC
Precipitaciones diarias en mm
DESCASC
Precipitaciones de 00:00 a 06:00 en mm
DESCASC
Precipitaciones de 06:00 a 12:00 en mm
DESCASC
Precipitaciones de 12:00 a 18:00 en mm
DESCASC
Precipitaciones de 18:00 a 24:00 en mm
DESCASC
18-11-2019 2.7 (15:30) -1.5 (23:50) 0.6 16.94 (10:10) 11.39 (12:20) 0.4 0.4 0 0 0
17-11-2019 3.7 (13:30) -1.8 (02:50) 1 19.17 (12:30) 12.22 (14:40) 0 0 0 0 0
16-11-2019 3.2 (14:50) -2.7 (03:20) 0.3 11.94 (22:00) 8.61 (22:30) 0 0 0 0 0
15-11-2019 2.1 (14:30) -3.2 (06:10) -0.6 13.89 (11:30) 9.72 (09:50) 0.2 0 0.2 0 0
14-11-2019 6.7 (00:40) -1.7 (-00:0) 2.5 19.17 (11:00) 11.67 (11:00) 10.6 0 5.2 0.2 5.2
13-11-2019 8.5 (09:40) 3.8 (00:00) 6.1 20 (01:20) 11.39 (01:50) 0.6 0 0.6 0 0
12-11-2019 6.6 (14:00) -0.2 (00:00) 3.2 17.78 (00:30) 13.33 (00:30) 0 0 0 0 0
11-11-2019 5.8 (15:50) -0.7 (00:00) 2.6 18.33 (20:00) 12.22 (23:50) 0 0 0 0 0
10-11-2019 3.6 (00:00) -1.5 (-00:0) 1 19.72 (12:20) 12.78 (12:10) 1.6 1.2 0.4 0 0
09-11-2019 7.7 (13:50) -0.1 (00:00) 3.8 20.28 (18:00) 11.11 (19:50) 0 0 0 0 0
08-11-2019 4.4 (16:20) -1.4 (06:30) 1.5 20.28 (22:00) 13.61 (21:10) 0 0 0 0 0
07-11-2019 8.2 (12:00) 0.3 (00:00) 4.2 19.72 (03:20) 13.33 (03:20) 0.2 0 0.2 0 0
06-11-2019 8.3 (14:40) 2.2 (00:00) 5.3 15 (20:00) 10 (08:00) 0 0 0 0 0
05-11-2019 7.9 (00:10) 2.5 (00:00) 5.2 19.72 (13:00) 13.06 (13:00) 2 1.8 0 0.2 0
04-11-2019 10.7 (12:20) 7.1 (00:00) 8.9 22.78 (10:00) 13.33 (09:30) 4.8 0 0 0 4.8
03-11-2019 9.4 (15:00) 6.9 (00:00) 8.1 23.06 (11:00) 15.28 (12:40) 1 0.2 0.8 0 0
02-11-2019 13.2 (12:10) 8.6 (00:00) 10.9 15.83 (04:00) 10 (04:20) 1.8 0 0 0.2 1.6
01-11-2019 16 (13:40) 10.5 (00:00) 13.3 14.17 (21:30) 9.17 (12:20) 0 0 0 0 0
31-10-2019 15.4 (15:00) 9.8 (08:00) 12.6 13.33 (15:30) 7.5 (13:30) 0 0 0 0 0
30-10-2019 15 (12:30) 8.9 (00:00) 11.9 12.5 (22:10) 7.5 (23:20) 0 0 0 0 0
29-10-2019 17.8 (15:00) 9.7 (00:00) 13.7 11.11 (01:00) 6.67 (01:00) 0 0 0 0 0
28-10-2019 18.4 (16:00) 10.6 (00:00) 14.5 10.83 (04:00) 6.67 (03:50) 0 0 0 0 0
27-10-2019 17.2 (14:30) 9.3 (00:00) 13.3 9.17 (21:00) 3.89 (20:00) 0 0 0 0 0
26-10-2019 17.8 (15:40) 9.3 (00:00) 13.5 5.28 (15:50) 3.33 (15:50) 0 0 0 0 0
25-10-2019 17.4 (15:00) 5.6 (00:00) 11.5 7.5 (08:10) 5.56 (12:30) 0 0 0 0 0
24-10-2019 11.7 (17:50) 2.2 (00:00) 6.9 12.5 (18:00) 7.78 (15:40) 0 0 0 0 0
23-10-2019 5.3 (16:30) 2.3 (00:00) 3.8 12.5 (20:00) 7.78 (20:50) 1.4 1 0 0.4 0
22-10-2019 5 (00:00) 1.3 (14:20) 3.1 11.11 (15:20) 7.78 (15:20) 22.6 0 7.6 14.8 0.2

Gráficas

Temp. máximas Temp. mínimas Temp. medias Precipitaciones Rachas de viento máximas Velocidades máximas media en intervalos de 10 minutos

Datos horarios

Fecha y hora oficial Temperatura (ºC) Velocidad del viento (km/h) Dirección del viento Racha (km/h) Dirección de racha Precipitación (mm) Presión (hPa) Tendencia (hPa) Humedad (%)
2019-11-20 23:00:00 0.8 5 Sudeste 28 Sudoeste 0 -- -- 92
2019-11-20 22:00:00 0.8 8 Sudeste 31 Sur 0 -- -- 91
2019-11-20 21:00:00 0.9 12 Sudeste 35 Sudeste 0 -- -- 88
2019-11-20 20:00:00 1.5 6 Sudeste 25 Sudeste 0 -- -- 87
2019-11-20 19:00:00 2.5 6 Sudeste 19 Sudeste 0 -- -- 81
2019-11-20 18:00:00 3.2 3 Sudeste 17 Sudeste 0 -- -- 71
2019-11-20 17:00:00 3.8 6 Sur 20 Sur 0 -- -- 66
2019-11-20 16:00:00 5.1 4 Oeste 25 Sudoeste 0 -- -- 56
2019-11-20 15:00:00 6 7 Sudoeste 19 Sudoeste 0 -- -- 52
2019-11-20 14:00:00 6 10 Sudoeste 19 Sudoeste 0 -- -- 52
2019-11-20 13:00:00 5.3 4 Sudoeste 19 Sudoeste 0 -- -- 49
2019-11-20 12:00:00 4.7 2 Sudeste 9 Este 0 -- -- 62
2019-11-20 11:00:00 2.8 5 Este 10 Sudeste 0 -- -- 72
2019-11-20 10:00:00 1.5 3 Nordeste 7 Este 0 -- -- 79
2019-11-20 09:00:00 -0.6 4 Sudeste 6 Sur 0 -- -- 84
2019-11-20 08:00:00 -0.7 3 Este 18 Oeste 0 -- -- 81
2019-11-20 07:00:00 -0.3 6 Oeste 26 Sur 0 -- -- 82
2019-11-20 06:00:00 -0.9 4 Noroeste 10 Sudeste 0 -- -- 75
2019-11-20 05:00:00 -0.5 6 Sudeste 10 Sudeste 0 -- -- 76
2019-11-20 04:00:00 0.6 2 Norte 26 Sudoeste 0 -- -- 67
2019-11-20 03:00:00 1.2 19 Sudoeste 31 Sudoeste 0 -- -- 68
2019-11-20 02:00:00 0.5 4 Sur 12 Sudoeste 0 -- -- 76
2019-11-20 01:00:00 0.6 4 Sudoeste 9 Sudoeste 0 -- -- 76
2019-11-20 00:00:00 -0.4 2 Sur 4 Sur 0 -- -- 77
2019-11-19 23:00:00 0.4 5 Sur 8 Sur 0 -- -- 74
2019-11-19 22:00:00 0.7 5 Oeste 9 Oeste 0 -- -- 74
2019-11-19 21:00:00 0.8 5 Sudoeste 15 Sudoeste 0 -- -- 75
2019-11-19 20:00:00 0.5 2 Sudoeste 5 Sudoeste 0 -- -- 76
2019-11-19 19:00:00 1.1 0 Calma 12 Oeste 0 -- -- 71
2019-11-19 18:00:00 1.8 8 Oeste 12 Oeste 0 -- -- 67
2019-11-19 17:00:00 2.8 7 Oeste 18 Noroeste 0 -- -- 64
2019-11-19 16:00:00 4.3 12 Noroeste 18 Noroeste 0 -- -- 53
2019-11-19 15:00:00 4.9 6 Oeste 12 Oeste 0 -- -- 51
2019-11-19 14:00:00 4.4 5 Oeste 15 Noroeste 0 -- -- 51
2019-11-19 13:00:00 3.8 9 Noroeste 26 Noroeste 0 -- -- 62
2019-11-19 12:00:00 2.8 13 Noroeste 29 Noroeste 0 -- -- 63
2019-11-19 11:00:00 1.8 13 Noroeste 25 Noroeste 0 -- -- 67
2019-11-19 10:00:00 0.6 14 Noroeste 30 Oeste 0 -- -- 70
2019-11-19 09:00:00 -0.5 21 Oeste 36 Noroeste 0 -- -- 75
2019-11-19 08:00:00 -1.9 17 Oeste 26 Oeste 0 -- -- 80
2019-11-19 07:00:00 -2 12 Oeste 28 Oeste 0 -- -- 80
2019-11-19 06:00:00 -2.6 10 Noroeste 21 Oeste 0 -- -- 86
2019-11-19 05:00:00 -2.3 14 Oeste 30 Oeste 0 -- -- 84
2019-11-19 04:00:00 -2.2 22 Oeste 34 Noroeste 0 -- -- 83
2019-11-19 03:00:00 -2.2 24 Oeste 39 Oeste 0 -- -- 81
2019-11-19 02:00:00 -2.3 24 Noroeste 32 Noroeste 0 -- -- 85
2019-11-19 01:00:00 -1.9 26 Noroeste 36 Noroeste 0 -- -- 83
2019-11-19 00:00:00 -1.5 24 Noroeste 41 Noroeste 0 -- -- 82
2019-11-18 23:00:00 -1.4 23 Noroeste 31 Noroeste 0 -- -- 86
2019-11-18 22:00:00 -0.9 17 Noroeste 29 Noroeste 0 -- -- 86
2019-11-18 21:00:00 0 18 Noroeste 31 Noroeste 0 -- -- 82
2019-11-18 20:00:00 0.1 20 Noroeste 39 Oeste 0 -- -- 79
2019-11-18 19:00:00 0.3 26 Noroeste 38 Oeste 0 -- -- 76
2019-11-18 18:00:00 0.8 27 Noroeste 42 Noroeste 0 -- -- 74
2019-11-18 17:00:00 1.5 28 Noroeste 49 Noroeste 0 -- -- 67
2019-11-18 16:00:00 2 29 Noroeste 48 Noroeste 0 -- -- 72
2019-11-18 15:00:00 2.3 33 Noroeste 46 Noroeste 0 -- -- 69
2019-11-18 14:00:00 1.9 25 Noroeste 44 Norte 0 -- -- 73
2019-11-18 13:00:00 1.3 31 Noroeste 57 Noroeste 0 -- -- 72
2019-11-18 12:00:00 1.2 36 Noroeste 59 Noroeste 0 -- -- 76
2019-11-18 11:00:00 0.7 37 Noroeste 61 Noroeste 0 -- -- 78
2019-11-18 10:00:00 0.1 27 Noroeste 50 Noroeste 0 -- -- 86
2019-11-18 09:00:00 -0.2 30 Noroeste 45 Noroeste 0 -- -- 88
2019-11-18 08:00:00 -0.3 30 Noroeste 43 Noroeste 0 -- -- 94
2019-11-18 07:00:00 -0.2 28 Noroeste 42 Noroeste 0 -- -- 94
2019-11-18 06:00:00 -0.1 30 Noroeste 44 Noroeste 0 -- -- 91
2019-11-18 05:00:00 -0.1 31 Noroeste 42 Noroeste 0 -- -- 87
2019-11-18 04:00:00 0 26 Oeste 37 Oeste 0 -- -- 86
2019-11-18 03:00:00 0.3 26 Oeste 39 Oeste 0 -- -- 85
2019-11-18 02:00:00 0.8 21 Noroeste 33 Noroeste 0.2 -- -- 84
2019-11-18 01:00:00 1.4 23 Oeste 36 Oeste 0.2 -- -- 84
2019-11-18 00:00:00 2.3 16 Oeste 38 Oeste 0 -- -- 88
2019-11-17 23:00:00 2.7 23 Oeste 39 Oeste 0 -- -- 85
2019-11-17 22:00:00 2.6 22 Oeste 52 Oeste 0 -- -- 88
2019-11-17 21:00:00 2.7 26 Oeste 56 Oeste 0 -- -- 90
2019-11-17 20:00:00 2.3 15 Oeste 38 Oeste 0 -- -- 92
2019-11-17 19:00:00 2.3 13 Oeste 39 Oeste 0 -- -- 90
2019-11-17 18:00:00 2 29 Oeste 55 Oeste 0 -- -- 88
2019-11-17 17:00:00 2 31 Oeste 59 Sudoeste 0 -- -- 86
2019-11-17 16:00:00 2 22 Oeste 49 Oeste 0 -- -- 90
2019-11-17 15:00:00 2.6 33 Oeste 66 Oeste 0 -- -- 86
2019-11-17 14:00:00 3.3 42 Oeste 64 Sudoeste 0 -- -- 80
2019-11-17 13:00:00 3.3 33 Oeste 69 Oeste 0 -- -- 76
2019-11-17 12:00:00 2.5 38 Oeste 64 Oeste 0 -- -- 76
2019-11-17 11:00:00 2.1 32 Oeste 50 Sudoeste 0 -- -- 74
2019-11-17 10:00:00 1.9 26 Oeste 58 Oeste 0 -- -- 74
2019-11-17 09:00:00 1.1 36 Oeste 58 Oeste 0 -- -- 74
2019-11-17 08:00:00 -1.7 26 Oeste 52 Oeste 0 -- -- 80
2019-11-17 07:00:00 -0.2 36 Oeste 51 Oeste 0 -- -- 70
2019-11-17 06:00:00 -1.2 30 Oeste 47 Oeste 0 -- -- 71
2019-11-17 05:00:00 -1.7 26 Oeste 42 Oeste 0 -- -- 74
2019-11-17 04:00:00 -1.8 28 Noroeste 43 Oeste 0 -- -- 77
2019-11-17 03:00:00 -1.7 30 Oeste 42 Oeste 0 -- -- 81
2019-11-17 02:00:00 -1.1 27 Oeste 43 Oeste 0 -- -- 79
2019-11-17 01:00:00 -1 24 Noroeste 45 Oeste 0 -- -- 79
2019-11-17 00:00:00 -1.2 24 Oeste 40 Oeste 0 -- -- 79
2019-11-16 23:00:00 -0.9 25 Oeste 43 Oeste 0 -- -- 74
2019-11-16 22:00:00 -0.5 28 Oeste 43 Oeste 0 -- -- 74
2019-11-16 21:00:00 -0.2 29 Oeste 42 Oeste 0 -- -- 76
2019-11-16 20:00:00 -0.1 24 Oeste 39 Oeste 0 -- -- 79
2019-11-16 19:00:00 0.1 19 Oeste 33 Oeste 0 -- -- 80
2019-11-16 18:00:00 0.4 14 Oeste 31 Noroeste 0 -- -- 77
2019-11-16 17:00:00 1.2 19 Oeste 35 Noroeste 0 -- -- 71
2019-11-16 16:00:00 2.4 20 Noroeste 30 Oeste 0 -- -- 60
2019-11-16 15:00:00 3 16 Noroeste 26 Noroeste 0 -- -- 55
2019-11-16 14:00:00 2.3 19 Noroeste 36 Noroeste 0 -- -- 59
2019-11-16 13:00:00 1.8 23 Noroeste 37 Noroeste 0 -- -- 57
2019-11-16 12:00:00 1 20 Noroeste 31 Noroeste 0 -- -- 56
2019-11-16 11:00:00 -0.3 16 Noroeste 30 Noroeste 0 -- -- 73
2019-11-16 10:00:00 -1.6 16 Noroeste 35 Noroeste 0 -- -- 86
2019-11-16 09:00:00 -2.4 17 Noroeste 36 Noroeste 0 -- -- 87
2019-11-16 08:00:00 -2.5 21 Noroeste 31 Noroeste 0 -- -- 91
2019-11-16 07:00:00 -2.4 17 Noroeste 26 Noroeste 0 -- -- 92
2019-11-16 06:00:00 -2.3 20 Noroeste 35 Noroeste 0 -- -- 91
2019-11-16 05:00:00 -1.8 23 Noroeste 32 Noroeste 0 -- -- 88
2019-11-16 04:00:00 -1.8 14 Noroeste 21 Noroeste 0 -- -- 88
2019-11-16 03:00:00 -2.3 6 Noroeste 27 Oeste 0 -- -- 89
2019-11-16 02:00:00 -1.8 9 Noroeste 31 Oeste 0 -- -- 90
2019-11-16 01:00:00 -1 21 Noroeste 34 Noroeste 0 -- -- 83
2019-11-16 00:00:00 -1.4 16 Oeste 37 Oeste 0 -- -- 85
2019-11-15 23:00:00 -1.1 25 Oeste 36 Oeste 0 -- -- 85
2019-11-15 22:00:00 -0.9 21 Oeste 34 Oeste 0 -- -- 84
2019-11-15 21:00:00 -0.9 18 Oeste 30 Oeste 0 -- -- 85
2019-11-15 20:00:00 -0.2 16 Oeste 27 Oeste 0 -- -- 82
2019-11-15 19:00:00 -0.4 14 Oeste 23 Oeste 0 -- -- 82
2019-11-15 18:00:00 0 8 Oeste 22 Oeste 0 -- -- 84
2019-11-15 17:00:00 0.6 12 Oeste 23 Oeste 0 -- -- 78
2019-11-15 16:00:00 0.9 5 Noroeste 41 Noroeste 0 -- -- 76
2019-11-15 15:00:00 1.6 18 Oeste 33 Noroeste 0 -- -- 78
2019-11-15 14:00:00 1.4 22 Oeste 39 Oeste 0 -- -- 76
2019-11-15 13:00:00 1.2 18 Noroeste 39 Noroeste 0 -- -- 78
2019-11-15 12:00:00 0.7 25 Oeste 50 Oeste 0 -- -- 77
2019-11-15 11:00:00 0.1 28 Oeste 42 Oeste 0 -- -- 80
2019-11-15 10:00:00 -0.8 31 Oeste 49 Oeste 0 -- -- 80
2019-11-15 09:00:00 -1.8 27 Oeste 42 Oeste 0.2 -- -- 81
2019-11-15 08:00:00 -2.7 28 Oeste 42 Oeste 0 -- -- 81
2019-11-15 07:00:00 -2.9 24 Oeste 32 Oeste 0 -- -- 83
2019-11-15 06:00:00 -3.1 14 Noroeste 39 Oeste 0 -- -- 84
2019-11-15 05:00:00 -2.3 24 Noroeste 37 Noroeste 0 -- -- 84
2019-11-15 04:00:00 -2.1 12 Oeste 31 Oeste 0 -- -- 89
2019-11-15 03:00:00 -2.1 12 Oeste 27 Noroeste 0 -- -- 88
2019-11-15 02:00:00 -2 15 Oeste 23 Noroeste 0 -- -- 87
2019-11-15 01:00:00 -2 21 Oeste 45 Oeste 0 -- -- 85
2019-11-15 00:00:00 -1.7 25 Oeste 39 Oeste 0.2 -- -- 87
2019-11-14 23:00:00 -1 22 Oeste 36 Oeste 1.2 -- -- 90
2019-11-14 22:00:00 -0.9 0 Calma 26 Sudoeste 1.2 -- -- 94
2019-11-14 21:00:00 -0.7 9 Oeste 32 Oeste 1 -- -- 90
2019-11-14 20:00:00 -0.7 2 Sudeste 22 Oeste 1.6 -- -- 93
2019-11-14 19:00:00 -0.3 14 Oeste 39 Oeste 0 -- -- 87
2019-11-14 18:00:00 -0.7 14 Sudoeste 35 Oeste 0 -- -- 86
2019-11-14 17:00:00 0.4 21 Oeste 45 Oeste 0 -- -- 75
2019-11-14 16:00:00 0.7 20 Oeste 53 Oeste 0 -- -- 77
2019-11-14 15:00:00 1.4 30 Oeste 52 Oeste 0 -- -- 77
2019-11-14 14:00:00 0.7 30 Oeste 51 Oeste 0 -- -- 81
2019-11-14 13:00:00 0 24 Oeste 45 Oeste 0.2 -- -- 82
2019-11-14 12:00:00 -0.4 24 Oeste 50 Oeste 0 -- -- 89
2019-11-14 11:00:00 -0.8 42 Oeste 69 Noroeste 0.4 -- -- 92
2019-11-14 10:00:00 1.3 18 Oeste 27 Sudoeste 3.8 -- -- 92
2019-11-14 09:00:00 2.8 17 Oeste 40 Sudoeste 0.6 -- -- 89
2019-11-14 08:00:00 3.5 21 Oeste 43 Oeste 0.2 -- -- 85
2019-11-14 07:00:00 3.8 20 Oeste 41 Oeste 0.2 -- -- 84
2019-11-14 06:00:00 4.6 19 Oeste 55 Oeste 0 -- -- 77
2019-11-14 05:00:00 5 25 Oeste 50 Oeste 0 -- -- 75
2019-11-14 04:00:00 5.5 19 Sudoeste 45 Oeste 0 -- -- 79
2019-11-14 03:00:00 6 15 Oeste 46 Sudoeste 0 -- -- 80
2019-11-14 02:00:00 6 23 Sudoeste 46 Oeste 0 -- -- 81
2019-11-14 01:00:00 6.5 23 Sudoeste 53 Oeste 0 -- -- 77
2019-11-14 00:00:00 6.5 27 Oeste 61 Oeste 0 -- -- 76
2019-11-13 23:00:00 6.5 36 Oeste 60 Oeste 0 -- -- 76
2019-11-13 22:00:00 6.1 24 Oeste 51 Oeste 0 -- -- 75
2019-11-13 21:00:00 6.5 30 Oeste 54 Oeste 0 -- -- 69
2019-11-13 20:00:00 5.2 13 Oeste 32 Oeste 0 -- -- 73
2019-11-13 19:00:00 4.5 8 Noroeste 24 Norte 0 -- -- 75
2019-11-13 18:00:00 5.8 14 Noroeste 31 Noroeste 0 -- -- 69
2019-11-13 17:00:00 6.9 20 Noroeste 38 Noroeste 0 -- -- 64
2019-11-13 16:00:00 7.5 25 Noroeste 36 Noroeste 0 -- -- 61
2019-11-13 15:00:00 6.9 29 Noroeste 39 Noroeste 0 -- -- 66
2019-11-13 14:00:00 6.4 22 Noroeste 44 Noroeste 0 -- -- 71
2019-11-13 13:00:00 6.3 36 Noroeste 48 Noroeste 0 -- -- 76
2019-11-13 12:00:00 5.1 30 Noroeste 50 Noroeste 0 -- -- 87
2019-11-13 11:00:00 5 36 Noroeste 49 Noroeste 0.2 -- -- 92
2019-11-13 10:00:00 7.2 36 Noroeste 52 Noroeste 0.4 -- -- 88
2019-11-13 09:00:00 7.4 22 Oeste 47 Oeste 0 -- -- 88
2019-11-13 08:00:00 6.5 26 Oeste 56 Oeste 0 -- -- 89
2019-11-13 07:00:00 6 30 Oeste 60 Oeste 0 -- -- 87
2019-11-13 06:00:00 5.4 24 Oeste 57 Sudoeste 0 -- -- 87
2019-11-13 05:00:00 5.5 36 Oeste 67 Oeste 0 -- -- 86
2019-11-13 04:00:00 5.5 39 Oeste 65 Oeste 0 -- -- 85
2019-11-13 03:00:00 5 39 Oeste 66 Oeste 0 -- -- 87
2019-11-13 02:00:00 4.6 37 Oeste 72 Oeste 0 -- -- 88
2019-11-13 01:00:00 4.3 34 Oeste 68 Oeste 0 -- -- 86
2019-11-13 00:00:00 3.8 31 Oeste 60 Oeste 0 -- -- 82
2019-11-12 23:00:00 3.6 18 Oeste 44 Oeste 0 -- -- 79
2019-11-12 22:00:00 3.5 8 Oeste 32 Oeste 0 -- -- 75
2019-11-12 21:00:00 2.9 11 Oeste 28 Oeste 0 -- -- 78
2019-11-12 20:00:00 2.9 9 Oeste 26 Oeste 0 -- -- 76
2019-11-12 19:00:00 3.3 17 Noroeste 41 Noroeste 0 -- -- 74
2019-11-12 18:00:00 4.2 26 Noroeste 40 Oeste 0 -- -- 69
2019-11-12 17:00:00 4.6 24 Noroeste 37 Noroeste 0 -- -- 67
2019-11-12 16:00:00 5.6 30 Noroeste 45 Oeste 0 -- -- 63
2019-11-12 15:00:00 6.3 22 Noroeste 37 Noroeste 0 -- -- 58
2019-11-12 14:00:00 6.6 25 Noroeste 37 Noroeste 0 -- -- 61
2019-11-12 13:00:00 5.3 24 Noroeste 37 Noroeste 0 -- -- 66
2019-11-12 12:00:00 4.6 26 Noroeste 42 Noroeste 0 -- -- 71
2019-11-12 11:00:00 3.9 30 Noroeste 47 Noroeste 0 -- -- 72
2019-11-12 10:00:00 2.8 33 Noroeste 49 Noroeste 0 -- -- 75
2019-11-12 09:00:00 1.7 32 Noroeste 46 Noroeste 0 -- -- 79
2019-11-12 08:00:00 -0.1 26 Noroeste 41 Noroeste 0 -- -- 82
2019-11-12 07:00:00 0.2 30 Noroeste 41 Noroeste 0 -- -- 80
2019-11-12 06:00:00 -0.2 25 Noroeste 39 Noroeste 0 -- -- 76
2019-11-12 05:00:00 0.5 28 Noroeste 49 Noroeste 0 -- -- 68
2019-11-12 04:00:00 0.3 31 Noroeste 48 Noroeste 0 -- -- 73
2019-11-12 03:00:00 0.6 32 Noroeste 51 Noroeste 0 -- -- 76
2019-11-12 02:00:00 0.1 35 Noroeste 58 Noroeste 0 -- -- 84
2019-11-12 01:00:00 0.3 38 Noroeste 64 Noroeste 0 -- -- 81
2019-11-12 00:00:00 0.4 44 Noroeste 61 Noroeste 0 -- -- 83
2019-11-11 23:00:00 0.8 40 Noroeste 64 Noroeste 0 -- -- 81
2019-11-11 22:00:00 1 42 Noroeste 60 Noroeste 0 -- -- 82
2019-11-11 21:00:00 1.7 33 Noroeste 66 Noroeste 0 -- -- 84
2019-11-11 20:00:00 3.1 41 Noroeste 66 Noroeste 0 -- -- 84
2019-11-11 19:00:00 4 42 Noroeste 56 Noroeste 0 -- -- 82
2019-11-11 18:00:00 4.9 24 Noroeste 51 Noroeste 0 -- -- 81
2019-11-11 17:00:00 5.3 33 Noroeste 63 Noroeste 0 -- -- 79
2019-11-11 16:00:00 5.8 34 Noroeste 51 Noroeste 0 -- -- 76
2019-11-11 15:00:00 5.1 29 Noroeste 44 Noroeste 0 -- -- 82
2019-11-11 14:00:00 5.4 22 Noroeste 48 Oeste 0 -- -- 75
2019-11-11 13:00:00 4.4 29 Noroeste 42 Oeste 0 -- -- 77
2019-11-11 12:00:00 3.9 24 Noroeste 35 Noroeste 0 -- -- 72
2019-11-11 11:00:00 3.6 19 Noroeste 28 Noroeste 0 -- -- 74
2019-11-11 10:00:00 2 16 Noroeste 37 Noroeste 0 -- -- 78
2019-11-11 09:00:00 1.1 28 Noroeste 43 Noroeste 0 -- -- 80
2019-11-11 08:00:00 0.7 27 Noroeste 40 Oeste 0 -- -- 81
2019-11-11 07:00:00 0.8 27 Noroeste 42 Noroeste 0 -- -- 78
2019-11-11 06:00:00 0.4 27 Noroeste 45 Oeste 0 -- -- 79
2019-11-11 05:00:00 -0.3 19 Noroeste 36 Oeste 0 -- -- 83
2019-11-11 04:00:00 -0.4 23 Noroeste 45 Oeste 0 -- -- 83
2019-11-11 03:00:00 -0.4 29 Noroeste 46 Noroeste 0 -- -- 81
2019-11-11 02:00:00 -0.5 37 Noroeste 55 Noroeste 0 -- -- 81
2019-11-11 01:00:00 -0.7 27 Noroeste 47 Noroeste 0 -- -- 81
2019-11-11 00:00:00 -0.7 25 Noroeste 43 Noroeste 0 -- -- 79
2019-11-10 23:00:00 -0.5 24 Noroeste 51 Noroeste 0 -- -- 78
2019-11-10 22:00:00 -0.2 38 Noroeste 55 Noroeste 0 -- -- 75
2019-11-10 21:00:00 0.3 39 Noroeste 62 Noroeste 0 -- -- 76
2019-11-10 20:00:00 0.6 35 Noroeste 61 Noroeste 0 -- -- 77
2019-11-10 19:00:00 0.9 33 Noroeste 50 Noroeste 0 -- -- 75
2019-11-10 18:00:00 0.9 30 Noroeste 56 Noroeste 0 -- -- 79
2019-11-10 17:00:00 1.6 36 Noroeste 57 Noroeste 0 -- -- 77
2019-11-10 16:00:00 2.3 40 Noroeste 59 Noroeste 0 -- -- 74
2019-11-10 15:00:00 2.5 36 Noroeste 64 Noroeste 0 -- -- 75
2019-11-10 14:00:00 2.8 41 Noroeste 66 Noroeste 0 -- -- 77
2019-11-10 13:00:00 2.2 42 Noroeste 71 Noroeste 0 -- -- 75
2019-11-10 12:00:00 1.5 45 Noroeste 66 Noroeste 0 -- -- 79
2019-11-10 11:00:00 0.4 40 Noroeste 52 Oeste 0 -- -- 79
2019-11-10 10:00:00 -0.4 34 Oeste 48 Noroeste 0.4 -- -- 83
2019-11-10 09:00:00 -1.1 35 Noroeste 51 Oeste 0 -- -- 89
2019-11-10 08:00:00 -1.4 36 Noroeste 51 Noroeste 0 -- -- 92
2019-11-10 07:00:00 -1.2 33 Noroeste 52 Noroeste 0 -- -- 95
2019-11-10 06:00:00 -0.8 27 Noroeste 39 Noroeste 0 -- -- 97
2019-11-10 05:00:00 -0.7 26 Noroeste 39 Noroeste 0 -- -- 97
2019-11-10 04:00:00 -0.7 22 Noroeste 35 Noroeste 0.2 -- -- 97
2019-11-10 03:00:00 -0.6 24 Noroeste 44 Noroeste 0.8 -- -- 96
2019-11-10 02:00:00 0.9 34 Noroeste 58 Oeste 0.2 -- -- 89
2019-11-10 01:00:00 3.4 32 Noroeste 51 Noroeste 0 -- -- 82
2019-11-10 00:00:00 3.6 21 Oeste 36 Oeste 0 -- -- 86
2019-11-09 23:00:00 3.6 19 Oeste 36 Oeste 0 -- -- 89
2019-11-09 22:00:00 3.3 24 Oeste 57 Oeste 0 -- -- 89
2019-11-09 21:00:00 2.9 32 Oeste 58 Oeste 0 -- -- 89
2019-11-09 20:00:00 2.6 33 Oeste 62 Oeste 0 -- -- 86
2019-11-09 19:00:00 3.4 36 Oeste 63 Oeste 0 -- -- 83
2019-11-09 18:00:00 3.5 40 Oeste 73 Oeste 0 -- -- 82
2019-11-09 17:00:00 4.9 37 Oeste 55 Oeste 0 -- -- 73
2019-11-09 16:00:00 6.5 37 Oeste 57 Oeste 0 -- -- 71
2019-11-09 15:00:00 7.3 32 Oeste 54 Oeste 0 -- -- 62
2019-11-09 14:00:00 7.4 26 Oeste 45 Oeste 0 -- -- 56
2019-11-09 13:00:00 6.9 22 Oeste 42 Oeste 0 -- -- 55
2019-11-09 12:00:00 6.1 18 Noroeste 39 Noroeste 0 -- -- 60
2019-11-09 11:00:00 4.6 30 Noroeste 41 Noroeste 0 -- -- 63
2019-11-09 10:00:00 2.8 23 Oeste 44 Oeste 0 -- -- 73
2019-11-09 09:00:00 1.1 24 Oeste 39 Oeste 0 -- -- 78
2019-11-09 08:00:00 0.1 23 Oeste 41 Oeste 0 -- -- 80
2019-11-09 07:00:00 0 24 Oeste 45 Oeste 0 -- -- 80
2019-11-09 06:00:00 0.1 31 Oeste 56 Oeste 0 -- -- 80
2019-11-09 05:00:00 0.1 31 Oeste 48 Oeste 0 -- -- 79
2019-11-09 04:00:00 0.5 26 Oeste 41 Oeste 0 -- -- 75
2019-11-09 03:00:00 0.6 29 Oeste 43 Oeste 0 -- -- 75
2019-11-09 02:00:00 1 26 Oeste 45 Oeste 0 -- -- 73
2019-11-09 01:00:00 1.7 35 Noroeste 53 Oeste 0 -- -- 70
2019-11-09 00:00:00 1.8 33 Noroeste 62 Noroeste 0 -- -- 70
2019-11-08 23:00:00 2 37 Oeste 68 Noroeste 0 -- -- 71
2019-11-08 22:00:00 2.2 44 Oeste 73 Noroeste 0 -- -- 70
2019-11-08 21:00:00 2.4 46 Oeste 65 Noroeste 0 -- -- 69
2019-11-08 20:00:00 2.4 41 Oeste 62 Noroeste 0 -- -- 68
2019-11-08 19:00:00 2.2 34 Oeste 56 Oeste 0 -- -- 69
2019-11-08 18:00:00 2.9 39 Oeste 63 Oeste 0 -- -- 65
2019-11-08 17:00:00 4 36 Noroeste 62 Noroeste 0 -- -- 58
2019-11-08 16:00:00 4.2 35 Oeste 62 Oeste 0 -- -- 63
2019-11-08 15:00:00 4 36 Oeste 59 Oeste 0 -- -- 64
2019-11-08 14:00:00 3.3 36 Oeste 60 Oeste 0 -- -- 67
2019-11-08 13:00:00 2.8 40 Oeste 57 Noroeste 0 -- -- 68
2019-11-08 12:00:00 2.7 35 Oeste 55 Noroeste 0 -- -- 69
2019-11-08 11:00:00 1.6 33 Oeste 50 Oeste 0 -- -- 72
2019-11-08 10:00:00 0.5 32 Oeste 51 Oeste 0 -- -- 76
2019-11-08 09:00:00 -0.4 32 Noroeste 55 Oeste 0 -- -- 78
2019-11-08 08:00:00 -1.2 39 Oeste 58 Oeste 0 -- -- 79
2019-11-08 07:00:00 -1.4 31 Oeste 55 Oeste 0 -- -- 78
2019-11-08 06:00:00 -1.2 31 Oeste 49 Oeste 0 -- -- 78
2019-11-08 05:00:00 -1 32 Oeste 54 Oeste 0 -- -- 80
2019-11-08 04:00:00 -1.1 28 Oeste 47 Oeste 0 -- -- 80
2019-11-08 03:00:00 -0.8 28 Oeste 44 Oeste 0 -- -- 80
2019-11-08 02:00:00 -0.6 22 Oeste 42 Oeste 0 -- -- 82
2019-11-08 01:00:00 0 24 Oeste 45 Oeste 0 -- -- 81
2019-11-08 00:00:00 0.3 18 Oeste 46 Oeste 0 -- -- 85
2019-11-07 23:00:00 0.5 27 Oeste 46 Oeste 0 -- -- 86
2019-11-07 22:00:00 0.6 22 Oeste 46 Oeste 0 -- -- 85
2019-11-07 21:00:00 0.9 25 Oeste 46 Oeste 0 -- -- 88
2019-11-07 20:00:00 2.9 23 Oeste 54 Oeste 0 -- -- 64
2019-11-07 19:00:00 3.2 24 Oeste 40 Oeste 0 -- -- 59
2019-11-07 18:00:00 4.2 26 Oeste 44 Oeste 0 -- -- 52
2019-11-07 17:00:00 5.4 24 Oeste 37 Oeste 0 -- -- 54
2019-11-07 16:00:00 6.4 31 Oeste 54 Oeste 0 -- -- 54
2019-11-07 15:00:00 7.2 38 Oeste 63 Oeste 0 -- -- 56
2019-11-07 14:00:00 7.7 30 Oeste 58 Oeste 0 -- -- 64
2019-11-07 13:00:00 7.7 25 Oeste 50 Oeste 0 -- -- 65
2019-11-07 12:00:00 8.2 28 Oeste 43 Oeste 0 -- -- 72
2019-11-07 11:00:00 7 18 Oeste 34 Oeste 0.2 -- -- 89
2019-11-07 10:00:00 6.8 11 Oeste 28 Oeste 0 -- -- 87
2019-11-07 09:00:00 6.1 6 Oeste 40 Oeste 0 -- -- 87
2019-11-07 08:00:00 5.5 19 Oeste 42 Oeste 0 -- -- 89
2019-11-07 07:00:00 5.2 22 Oeste 47 Oeste 0 -- -- 90
2019-11-07 06:00:00 5.1 22 Oeste 49 Oeste 0 -- -- 89
2019-11-07 05:00:00 4.9 34 Oeste 67 Sudoeste 0 -- -- 88
2019-11-07 04:00:00 4.5 44 Oeste 71 Oeste 0 -- -- 86
2019-11-07 03:00:00 4.8 33 Oeste 59 Oeste 0 -- -- 85
2019-11-07 02:00:00 4.6 17 Oeste 37 Oeste 0 -- -- 81
2019-11-07 01:00:00 3.1 3 Oeste 12 Oeste 0 -- -- 83
2019-11-07 00:00:00 2.9 3 Sudeste 22 Noroeste 0 -- -- 82
2019-11-06 23:00:00 3.1 0 Calma 25 Oeste 0 -- -- 82
2019-11-06 22:00:00 4.1 18 Oeste 39 Oeste 0 -- -- 77
2019-11-06 21:00:00 4 23 Oeste 45 Oeste 0 -- -- 76
2019-11-06 20:00:00 4.2 28 Oeste 54 Oeste 0 -- -- 74
2019-11-06 19:00:00 4.7 14 Oeste 24 Oeste 0 -- -- 71
2019-11-06 18:00:00 5 14 Oeste 25 Oeste 0 -- -- 70
2019-11-06 17:00:00 6.7 13 Noroeste 23 Noroeste 0 -- -- 62
2019-11-06 16:00:00 7.6 14 Noroeste 34 Oeste 0 -- -- 60
2019-11-06 15:00:00 8 21 Noroeste 34 Noroeste 0 -- -- 58
2019-11-06 14:00:00 7.9 19 Noroeste 36 Noroeste 0 -- -- 57
2019-11-06 13:00:00 7.1 24 Noroeste 37 Noroeste 0 -- -- 66
2019-11-06 12:00:00 5.9 25 Noroeste 39 Noroeste 0 -- -- 67
2019-11-06 11:00:00 5.7 25 Noroeste 39 Noroeste 0 -- -- 70
2019-11-06 10:00:00 4.6 25 Noroeste 42 Noroeste 0 -- -- 73
2019-11-06 09:00:00 3.2 26 Noroeste 44 Oeste 0 -- -- 80
2019-11-06 08:00:00 2.4 36 Noroeste 46 Oeste 0 -- -- 81
2019-11-06 07:00:00 2.5 28 Oeste 46 Oeste 0 -- -- 81
2019-11-06 06:00:00 2.7 29 Noroeste 45 Noroeste 0 -- -- 79
2019-11-06 05:00:00 2.9 29 Noroeste 46 Noroeste 0 -- -- 81
2019-11-06 04:00:00 2.9 31 Noroeste 44 Oeste 0 -- -- 80
2019-11-06 03:00:00 2.9 26 Oeste 49 Noroeste 0 -- -- 81
2019-11-06 02:00:00 3.1 32 Oeste 52 Oeste 0 -- -- 80
2019-11-06 01:00:00 3.5 31 Noroeste 52 Oeste 0 -- -- 78
2019-11-06 00:00:00 3.7 37 Oeste 60 Oeste 0 -- -- 77
2019-11-05 23:00:00 4.2 42 Noroeste 64 Oeste 0 -- -- 76
2019-11-05 22:00:00 4.3 34 Noroeste 67 Oeste 0 -- -- 78
2019-11-05 21:00:00 4.4 33 Oeste 46 Oeste 0 -- -- 79
2019-11-05 20:00:00 4 31 Oeste 51 Oeste 0 -- -- 80
2019-11-05 19:00:00 4.1 39 Oeste 56 Noroeste 0 -- -- 82
2019-11-05 18:00:00 4.1 22 Oeste 54 Oeste 0.2 -- -- 85
2019-11-05 17:00:00 5.1 36 Oeste 62 Oeste 0 -- -- 79
2019-11-05 16:00:00 5.8 30 Oeste 58 Oeste 0 -- -- 76
2019-11-05 15:00:00 5.6 36 Oeste 58 Oeste 0 -- -- 77
2019-11-05 14:00:00 5.1 41 Oeste 69 Oeste 0 -- -- 80
2019-11-05 13:00:00 5.4 47 Oeste 71 Noroeste 0 -- -- 75
2019-11-05 12:00:00 5 39 Oeste 67 Oeste 0 -- -- 80
2019-11-05 11:00:00 4 34 Oeste 59 Oeste 0 -- -- 85
2019-11-05 10:00:00 4.1 32 Oeste 54 Oeste 0 -- -- 79
2019-11-05 09:00:00 3.3 32 Oeste 58 Oeste 0 -- -- 83
2019-11-05 08:00:00 2.6 29 Oeste 59 Oeste 0 -- -- 82
2019-11-05 07:00:00 2.8 31 Oeste 55 Oeste 0 -- -- 81
2019-11-05 06:00:00 3.1 23 Oeste 46 Oeste 0 -- -- 85
2019-11-05 05:00:00 3.7 29 Oeste 64 Oeste 0 -- -- 82
2019-11-05 04:00:00 3.9 24 Oeste 39 Oeste 0.4 -- -- 88
2019-11-05 03:00:00 4.8 19 Oeste 48 Oeste 0.4 -- -- 90
2019-11-05 02:00:00 5.7 22 Oeste 67 Oeste 0 -- -- 83
2019-11-05 01:00:00 6.9 24 Oeste 55 Oeste 1 -- -- 86
2019-11-05 00:00:00 7.8 11 Oeste 46 Sudoeste 2.8 -- -- 89
2019-11-04 23:00:00 8.2 23 Oeste 73 Sudoeste 1.8 -- -- 86
2019-11-04 22:00:00 8.1 26 Sudoeste 57 Oeste 0.2 -- -- 89
2019-11-04 21:00:00 8.1 22 Oeste 51 Oeste 0 -- -- 89
2019-11-04 20:00:00 8.3 21 Oeste 57 Oeste 0 -- -- 86
2019-11-04 19:00:00 8.6 20 Oeste 42 Sudoeste 0 -- -- 81
2019-11-04 18:00:00 9 13 Sudoeste 39 Oeste 0 -- -- 78
2019-11-04 17:00:00 9.3 15 Oeste 50 Sudoeste 0 -- -- 78
2019-11-04 16:00:00 9.2 20 Sudoeste 60 Oeste 0 -- -- 82
2019-11-04 15:00:00 9.4 20 Oeste 48 Sudoeste 0 -- -- 84
2019-11-04 14:00:00 10.5 26 Oeste 64 Oeste 0 -- -- 71
2019-11-04 13:00:00 10 36 Oeste 75 Oeste 0 -- -- 71
2019-11-04 12:00:00 10.3 36 Oeste 76 Oeste 0 -- -- 72
2019-11-04 11:00:00 9.8 34 Oeste 72 Oeste 0 -- -- 71
2019-11-04 10:00:00 9.1 46 Oeste 82 Oeste 0 -- -- 76
2019-11-04 09:00:00 9.2 30 Oeste 79 Oeste 0 -- -- 80
2019-11-04 08:00:00 8.3 37 Oeste 78 Oeste 0 -- -- 78
2019-11-04 07:00:00 8.4 45 Oeste 78 Oeste 0 -- -- 81
2019-11-04 06:00:00 8.5 40 Oeste 73 Oeste 0 -- -- 82
2019-11-04 05:00:00 8.6 23 Oeste 54 Sudoeste 0 -- -- 88
2019-11-04 04:00:00 8.5 12 Oeste 44 Oeste 0 -- -- 90
2019-11-04 03:00:00 8 11 Oeste 42 Oeste 0 -- -- 88
2019-11-04 02:00:00 7.9 24 Oeste 64 Sudoeste 0 -- -- 84
2019-11-04 01:00:00 7.4 29 Oeste 56 Oeste 0 -- -- 80
2019-11-04 00:00:00 7.1 39 Oeste 62 Oeste 0 -- -- 76
2019-11-03 23:00:00 7.4 31 Oeste 56 Oeste 0 -- -- 70
2019-11-03 22:00:00 7.4 22 Oeste 41 Oeste 0 -- -- 67
2019-11-03 21:00:00 7.4 26 Oeste 55 Oeste 0 -- -- 66
2019-11-03 20:00:00 7.3 32 Oeste 53 Oeste 0 -- -- 69
2019-11-03 19:00:00 7.2 30 Oeste 54 Oeste 0 -- -- 69
2019-11-03 18:00:00 7.7 30 Oeste 49 Oeste 0 -- -- 65
2019-11-03 17:00:00 8.2 32 Oeste 54 Noroeste 0 -- -- 63
2019-11-03 16:00:00 9 31 Oeste 54 Oeste 0 -- -- 60
2019-11-03 15:00:00 9.4 25 Oeste 57 Oeste 0 -- -- 57
2019-11-03 14:00:00 8.9 41 Oeste 75 Oeste 0 -- -- 59
2019-11-03 13:00:00 8.6 52 Oeste 79 Oeste 0 -- -- 60
2019-11-03 12:00:00 8.1 49 Noroeste 77 Noroeste 0 -- -- 66
2019-11-03 11:00:00 8.3 47 Noroeste 83 Oeste 0.4 -- -- 76
2019-11-03 10:00:00 9 35 Oeste 63 Oeste 0.2 -- -- 87
2019-11-03 09:00:00 8.8 20 Oeste 58 Oeste 0 -- -- 85
2019-11-03 08:00:00 8.5 30 Oeste 71 Oeste 0 -- -- 85
2019-11-03 07:00:00 8.3 21 Oeste 59 Oeste 0.2 -- -- 86
2019-11-03 06:00:00 8.3 20 Oeste 49 Oeste 0 -- -- 86
2019-11-03 05:00:00 7.9 25 Oeste 78 Oeste 0.2 -- -- 88
2019-11-03 04:00:00 7.6 39 Oeste 62 Oeste 0 -- -- 87
2019-11-03 03:00:00 7.8 20 Oeste 55 Oeste 0 -- -- 81
2019-11-03 02:00:00 7.9 21 Oeste 44 Oeste 0 -- -- 81
2019-11-03 01:00:00 8.2 11 Oeste 30 Oeste 0 -- -- 81
2019-11-03 00:00:00 8.6 14 Oeste 50 Oeste 0.4 -- -- 88
2019-11-02 23:00:00 9.5 4 Oeste 54 Oeste 0.6 -- -- 88
2019-11-02 22:00:00 10.1 10 Sur 38 Oeste 0.6 -- -- 90
2019-11-02 21:00:00 10.5 10 Oeste 29 Oeste 0 -- -- 84
2019-11-02 20:00:00 10.4 6 Sudoeste 44 Oeste 0 -- -- 85
2019-11-02 19:00:00 10.2 26 Oeste 46 Oeste 0 -- -- 84
2019-11-02 18:00:00 10.7 18 Oeste 46 Oeste 0 -- -- 84
2019-11-02 17:00:00 11.1 12 Oeste 32 Sudoeste 0.2 -- -- 84
2019-11-02 16:00:00 11.4 8 Oeste 34 Oeste 0 -- -- 84
2019-11-02 15:00:00 12 19 Oeste 53 Oeste 0 -- -- 78
2019-11-02 14:00:00 12.2 23 Oeste 46 Oeste 0 -- -- 80
2019-11-02 13:00:00 12.8 15 Oeste 46 Oeste 0 -- -- 72
2019-11-02 12:00:00 12.9 27 Oeste 43 Oeste 0 -- -- 72
2019-11-02 11:00:00 12.4 25 Oeste 54 Oeste 0 -- -- 76
2019-11-02 10:00:00 11.9 28 Oeste 55 Oeste 0 -- -- 77
2019-11-02 09:00:00 11.3 26 Oeste 45 Oeste 0 -- -- 81
2019-11-02 08:00:00 10.5 10 Oeste 34 Oeste 0 -- -- 86
2019-11-02 07:00:00 10.5 16 Oeste 43 Oeste 0 -- -- 83
2019-11-02 06:00:00 10.5 23 Oeste 49 Oeste 0 -- -- 83
2019-11-02 05:00:00 10.5 28 Oeste 55 Oeste 0 -- -- 84
2019-11-02 04:00:00 10.8 32 Oeste 57 Oeste 0 -- -- 84
2019-11-02 03:00:00 10.9 19 Oeste 41 Oeste 0 -- -- 84
2019-11-02 02:00:00 11.3 26 Oeste 47 Oeste 0 -- -- 81
2019-11-02 01:00:00 11.8 26 Oeste 48 Oeste 0 -- -- 81
2019-11-02 00:00:00 12.1 24 Oeste 42 Oeste 0 -- -- 80
2019-11-01 23:00:00 12 26 Oeste 47 Oeste 0 -- -- 83
2019-11-01 22:00:00 12.5 30 Oeste 51 Oeste 0 -- -- 79
2019-11-01 21:00:00 13 28 Oeste 48 Oeste 0 -- -- 80
2019-11-01 20:00:00 13.1 22 Oeste 46 Oeste 0 -- -- 83
2019-11-01 19:00:00 13.2 18 Oeste 46 Oeste 0 -- -- 83
2019-11-01 18:00:00 13.4 19 Oeste 41 Sudoeste 0 -- -- 82
2019-11-01 17:00:00 14.2 8 Oeste 41 Oeste 0 -- -- 79
2019-11-01 16:00:00 14.7 15 Oeste 39 Oeste 0 -- -- 75
2019-11-01 15:00:00 15 15 Oeste 40 Noroeste 0 -- -- 71
2019-11-01 14:00:00 15.2 24 Oeste 41 Oeste 0 -- -- 70
2019-11-01 13:00:00 15.5 28 Oeste 46 Oeste 0 -- -- 68
2019-11-01 12:00:00 15 29 Oeste 46 Oeste 0 -- -- 71
2019-11-01 11:00:00 14.6 28 Oeste 39 Noroeste 0 -- -- 75
2019-11-01 10:00:00 13.7 28 Oeste 44 Noroeste 0 -- -- 76
2019-11-01 09:00:00 12.4 27 Noroeste 40 Noroeste 0 -- -- 84
2019-11-01 08:00:00 11.4 8 Noroeste 26 Noroeste 0 -- -- 87
2019-11-01 07:00:00 10.9 9 Noroeste 24 Oeste 0 -- -- 88
2019-11-01 06:00:00 11.5 14 Noroeste 27 Oeste 0 -- -- 87
2019-11-01 05:00:00 11.4 16 Oeste 39 Oeste 0 -- -- 87
2019-11-01 04:00:00 11.6 23 Oeste 36 Oeste 0 -- -- 81
2019-11-01 03:00:00 11.5 21 Oeste 36 Noroeste 0 -- -- 80
2019-11-01 02:00:00 11.1 20 Oeste 32 Oeste 0 -- -- 82
2019-11-01 01:00:00 10.8 14 Noroeste 25 Oeste 0 -- -- 83
2019-11-01 00:00:00 11.1 14 Oeste 30 Oeste 0 -- -- 82
2019-10-31 23:00:00 11.4 19 Oeste 30 Noroeste 0 -- -- 80
2019-10-31 22:00:00 11.2 16 Noroeste 27 Noroeste 0 -- -- 81
2019-10-31 21:00:00 11.8 17 Noroeste 31 Noroeste 0 -- -- 76
2019-10-31 20:00:00 12.3 21 Noroeste 39 Noroeste 0 -- -- 73
2019-10-31 19:00:00 12.2 20 Noroeste 31 Oeste 0 -- -- 75
2019-10-31 18:00:00 12.6 18 Oeste 37 Oeste 0 -- -- 72
2019-10-31 17:00:00 13.8 23 Noroeste 42 Noroeste 0 -- -- 67
2019-10-31 16:00:00 14.5 21 Noroeste 48 Noroeste 0 -- -- 62
2019-10-31 15:00:00 15.4 22 Noroeste 41 Noroeste 0 -- -- 58
2019-10-31 14:00:00 14.8 17 Noroeste 36 Oeste 0 -- -- 60
2019-10-31 13:00:00 14.2 22 Noroeste 34 Noroeste 0 -- -- 64
2019-10-31 12:00:00 13.6 20 Noroeste 39 Oeste 0 -- -- 66
2019-10-31 11:00:00 12.8 24 Noroeste 37 Noroeste 0 -- -- 69
2019-10-31 10:00:00 12.5 26 Noroeste 39 Noroeste 0 -- -- 74
2019-10-31 09:00:00 10.6 14 Noroeste 19 Noroeste 0 -- -- 87
2019-10-31 08:00:00 9.8 7 Noroeste 24 Noroeste 0 -- -- 89
2019-10-31 07:00:00 11 17 Noroeste 37 Noroeste 0 -- -- 86
2019-10-31 06:00:00 11 24 Oeste 33 Oeste 0 -- -- 87
2019-10-31 05:00:00 10.7 18 Oeste 40 Oeste 0 -- -- 87
2019-10-31 04:00:00 10.8 13 Oeste 38 Oeste 0 -- -- 85
2019-10-31 03:00:00 10.8 19 Oeste 36 Oeste 0 -- -- 85
2019-10-31 02:00:00 10.7 9 Noroeste 23 Oeste 0 -- -- 84
2019-10-31 01:00:00 11 13 Oeste 37 Oeste 0 -- -- 84
2019-10-31 00:00:00 11.2 22 Oeste 44 Oeste 0 -- -- 81
2019-10-30 23:00:00 11.5 24 Oeste 45 Oeste 0 -- -- 77
2019-10-30 22:00:00 11.6 24 Oeste 41 Oeste 0 -- -- 71
2019-10-30 21:00:00 11.4 18 Oeste 32 Oeste 0 -- -- 77
2019-10-30 20:00:00 11.9 16 Oeste 35 Oeste 0 -- -- 75
2019-10-30 19:00:00 11.9 11 Oeste 22 Oeste 0 -- -- 76
2019-10-30 18:00:00 12.7 8 Oeste 19 Oeste 0 -- -- 72
2019-10-30 17:00:00 13.9 8 Oeste 22 Noroeste 0 -- -- 68
2019-10-30 16:00:00 14.3 10 Noroeste 22 Noroeste 0 -- -- 65
2019-10-30 15:00:00 14.5 12 Noroeste 21 Noroeste 0 -- -- 63
2019-10-30 14:00:00 14.4 13 Noroeste 20 Oeste 0 -- -- 67
2019-10-30 13:00:00 14.4 12 Noroeste 21 Noroeste 0 -- -- 64
2019-10-30 12:00:00 14.5 12 Noroeste 22 Noroeste 0 -- -- 59
2019-10-30 11:00:00 13 8 Norte 13 Noroeste 0 -- -- 68
2019-10-30 10:00:00 11.7 6 Norte 12 Noroeste 0 -- -- 80
2019-10-30 09:00:00 10.2 9 Noroeste 13 Noroeste 0 -- -- 88
2019-10-30 08:00:00 9.5 4 Oeste 11 Oeste 0 -- -- 89
2019-10-30 07:00:00 8.9 9 Oeste 12 Oeste 0 -- -- 91
2019-10-30 06:00:00 9.3 6 Oeste 13 Oeste 0 -- -- 90
2019-10-30 05:00:00 9.6 10 Oeste 16 Oeste 0 -- -- 90
2019-10-30 04:00:00 9.7 9 Oeste 16 Oeste 0 -- -- 91
2019-10-30 03:00:00 9.5 10 Oeste 20 Noroeste 0 -- -- 92
2019-10-30 02:00:00 10.2 13 Noroeste 22 Oeste 0 -- -- 90
2019-10-30 01:00:00 10.2 11 Oeste 17 Noroeste 0 -- -- 89
2019-10-30 00:00:00 10.8 10 Oeste 14 Oeste 0 -- -- 86
2019-10-29 23:00:00 11.3 9 Oeste 14 Noroeste 0 -- -- 82
2019-10-29 22:00:00 11.9 9 Oeste 14 Oeste 0 -- -- 80
2019-10-29 21:00:00 12.5 10 Oeste 14 Oeste 0 -- -- 77
2019-10-29 20:00:00 12.3 5 Oeste 11 Oeste 0 -- -- 77
2019-10-29 19:00:00 12.3 0 Calma 8 Noroeste 0 -- -- 78
2019-10-29 18:00:00 14.2 3 Oeste 12 Noroeste 0 -- -- 72
2019-10-29 17:00:00 15.9 6 Este 16 Sudeste 0 -- -- 64
2019-10-29 16:00:00 16.2 12 Sudeste 22 Este 0 -- -- 63
2019-10-29 15:00:00 17.8 9 Sudeste 18 Sudeste 0 -- -- 59
2019-10-29 14:00:00 17.4 9 Sudeste 19 Este 0 -- -- 60
2019-10-29 13:00:00 17.2 7 Sudeste 15 Este 0 -- -- 60
2019-10-29 12:00:00 16.6 5 Este 12 Este 0 -- -- 60
2019-10-29 11:00:00 15.4 4 Norte 9 Norte 0 -- -- 60
2019-10-29 10:00:00 13.5 3 Norte 5 Norte 0 -- -- 69
2019-10-29 09:00:00 11.3 0 Calma 3 Noroeste 0 -- -- 73
2019-10-29 08:00:00 10.2 0 Calma 8 Oeste 0 -- -- 73
2019-10-29 07:00:00 9.9 0 Calma 14 Oeste 0 -- -- 73
2019-10-29 06:00:00 10.3 3 Noroeste 20 Oeste 0 -- -- 72
2019-10-29 05:00:00 11.3 15 Oeste 27 Oeste 0 -- -- 70
2019-10-29 04:00:00 10.7 18 Oeste 25 Oeste 0 -- -- 71
2019-10-29 03:00:00 10.6 15 Oeste 22 Oeste 0 -- -- 70
2019-10-29 02:00:00 10.3 10 Noroeste 30 Oeste 0 -- -- 71
2019-10-29 01:00:00 12.9 24 Oeste 40 Oeste 0 -- -- 61
2019-10-29 00:00:00 12.4 14 Oeste 22 Oeste 0 -- -- 52
2019-10-28 23:00:00 12.8 13 Oeste 20 Sudoeste 0 -- -- 55
2019-10-28 22:00:00 12.1 3 Noroeste 13 Oeste 0 -- -- 63
2019-10-28 21:00:00 12.3 9 Oeste 13 Oeste 0 -- -- 64
2019-10-28 20:00:00 12.1 6 Oeste 11 Sudoeste 0 -- -- 67
2019-10-28 19:00:00 13.1 6 Sur 13 Sur 0 -- -- 65
2019-10-28 18:00:00 14.3 8 Sur 13 Sudeste 0 -- -- 64
2019-10-28 17:00:00 16.1 11 Sudeste 16 Sudeste 0 -- -- 60
2019-10-28 16:00:00 18.4 3 Oeste 8 Noroeste 0 -- -- 41
2019-10-28 15:00:00 17.7 4 Norte 16 Oeste 0 -- -- 47
2019-10-28 14:00:00 16.7 3 Sudeste 11 Sudeste 0 -- -- 53
2019-10-28 13:00:00 15.3 4 Nordeste 9 Nordeste 0 -- -- 61
2019-10-28 12:00:00 14.7 3 Noroeste 24 Oeste 0 -- -- 58
2019-10-28 11:00:00 14.2 18 Oeste 36 Oeste 0 -- -- 56
2019-10-28 10:00:00 13.7 12 Oeste 26 Oeste 0 -- -- 56
2019-10-28 09:00:00 13.1 7 Oeste 14 Oeste 0 -- -- 60
2019-10-28 08:00:00 12.9 13 Oeste 21 Oeste 0 -- -- 60
2019-10-28 07:00:00 12.7 13 Oeste 20 Oeste 0 -- -- 60
2019-10-28 06:00:00 12.5 12 Oeste 19 Oeste 0 -- -- 59
2019-10-28 05:00:00 11.3 10 Noroeste 22 Oeste 0 -- -- 64
2019-10-28 04:00:00 13 21 Oeste 39 Oeste 0 -- -- 54
2019-10-28 03:00:00 11 0 Calma 4 Este 0 -- -- 69
2019-10-28 02:00:00 11.3 3 Sudeste 12 Oeste 0 -- -- 71
2019-10-28 01:00:00 12.5 8 Oeste 22 Sudoeste 0 -- -- 63
2019-10-28 00:00:00 10.6 5 Este 11 Este 0 -- -- 76
2019-10-27 23:00:00 10.9 4 Sudeste 14 Este 0 -- -- 76
2019-10-27 22:00:00 10.9 3 Sudeste 18 Sudoeste 0 -- -- 77
2019-10-27 21:00:00 12.7 10 Sudoeste 33 Sudoeste 0 -- -- 69
2019-10-27 20:00:00 13.3 14 Sur 26 Sur 0 -- -- 66
2019-10-27 19:00:00 12.9 9 Sur 14 Sur 0 -- -- 63
2019-10-27 18:00:00 13.9 9 Sur 18 Sur 0 -- -- 63
2019-10-27 17:00:00 15.8 11 Sudeste 20 Sudeste 0 -- -- 58
2019-10-27 16:00:00 16.4 12 Sudeste 19 Sudeste 0 -- -- 60
2019-10-27 15:00:00 17 12 Sudeste 21 Sudeste 0 -- -- 57
2019-10-27 14:00:00 17.1 11 Sudeste 18 Este 0 -- -- 56
2019-10-27 13:00:00 16.3 12 Sudeste 19 Este 0 -- -- 53
2019-10-27 12:00:00 16.2 9 Sudeste 14 Este 0 -- -- 54
2019-10-27 11:00:00 16.4 7 Este 12 Este 0 -- -- 51
2019-10-27 10:00:00 14.5 0 Calma 5 Este 0 -- -- 59
2019-10-27 09:00:00 12.8 0 Calma 3 Este 0 -- -- 62
2019-10-27 08:00:00 10.8 0 Calma 5 Oeste 0 -- -- 66
2019-10-27 07:00:00 10.1 3 Oeste 9 Oeste 0 -- -- 66
2019-10-27 06:00:00 10.1 4 Oeste 8 Oeste 0 -- -- 69
2019-10-27 05:00:00 9.8 2 Sudoeste 8 Oeste 0 -- -- 66
2019-10-27 04:00:00 10 6 Oeste 10 Oeste 0 -- -- 66
2019-10-27 03:00:00 10.6 4 Oeste 7 Oeste 0 -- -- 64
2019-10-27 02:00:00 9.7 2 Oeste 6 Sudeste 0 -- -- 66
2019-10-27 01:00:00 9.4 4 Sudeste 8 Oeste 0 -- -- 76
2019-10-27 00:00:00 9.6 0 Calma 8 Oeste 0 -- -- 74
2019-10-26 23:00:00 9.5 0 Calma 7 Sudeste 0 -- -- 72
2019-10-26 22:00:00 9.9 3 Sudeste 7 Sudeste 0 -- -- 75
2019-10-26 21:00:00 11.3 5 Sur 10 Sur 0 -- -- 71
2019-10-26 20:00:00 12.8 7 Sur 12 Sur 0 -- -- 59
2019-10-26 19:00:00 13.4 6 Sur 10 Sur 0 -- -- 60
2019-10-26 18:00:00 16.1 6 Sudeste 14 Sudeste 0 -- -- 52
2019-10-26 17:00:00 17 9 Sudeste 18 Sudeste 0 -- -- 50
2019-10-26 16:00:00 17.5 12 Sudeste 19 Sudeste 0 -- -- 49
2019-10-26 15:00:00 17.5 8 Sudeste 17 Este 0 -- -- 51
2019-10-26 14:00:00 16.9 6 Sudeste 14 Sudeste 0 -- -- 50
2019-10-26 13:00:00 16.1 8 Sudeste 17 Este 0 -- -- 55
2019-10-26 12:00:00 15.5 6 Sudeste 16 Sudeste 0 -- -- 58
2019-10-26 11:00:00 15.1 0 Calma 6 Nordeste 0 -- -- 45
2019-10-26 10:00:00 13.6 4 Sudeste 12 Sudoeste 0 -- -- 59
2019-10-26 09:00:00 10.9 0 Calma 11 Sudoeste 0 -- -- 66
2019-10-26 08:00:00 9.7 2 Sudeste 13 Sudoeste 0 -- -- 74
2019-10-26 07:00:00 9.7 0 Calma 4 Oeste 0 -- -- 75
2019-10-26 06:00:00 10 3 Sur 7 Sur 0 -- -- 75
2019-10-26 05:00:00 9.8 0 Calma 5 Sur 0 -- -- 77
2019-10-26 04:00:00 9.7 0 Calma 6 Sur 0 -- -- 75
2019-10-26 03:00:00 9.4 3 Sudeste 4 Sudeste 0 -- -- 77
2019-10-26 02:00:00 9.5 2 Sudeste 4 Sudeste 0 -- -- 78
2019-10-26 01:00:00 10 2 Sur 4 Sudeste 0 -- -- 77
2019-10-26 00:00:00 11.4 3 Oeste 8 Oeste 0 -- -- 71
2019-10-25 23:00:00 11.7 4 Oeste 9 Oeste 0 -- -- 70
2019-10-25 22:00:00 11.6 6 Oeste 9 Oeste 0 -- -- 73
2019-10-25 21:00:00 11.6 0 Calma 5 Sudoeste 0 -- -- 73
2019-10-25 20:00:00 12.1 2 Sudoeste 5 Sudoeste 0 -- -- 73
2019-10-25 19:00:00 12.9 0 Calma 8 Sur 0 -- -- 72
2019-10-25 18:00:00 15.7 6 Sudeste 17 Este 0 -- -- 64
2019-10-25 17:00:00 16.7 6 Sudeste 15 Este 0 -- -- 59
2019-10-25 16:00:00 17.2 7 Sudeste 19 Sudeste 0 -- -- 60
2019-10-25 15:00:00 17.4 9 Norte 19 Norte 0 -- -- 47
2019-10-25 14:00:00 16.1 14 Noroeste 27 Oeste 0 -- -- 50
2019-10-25 13:00:00 14.6 12 Noroeste 26 Noroeste 0 -- -- 56
2019-10-25 12:00:00 12.5 16 Noroeste 22 Norte 0 -- -- 62
2019-10-25 11:00:00 11 12 Noroeste 26 Oeste 0 -- -- 74
2019-10-25 10:00:00 9.4 14 Noroeste 23 Noroeste 0 -- -- 79
2019-10-25 09:00:00 7 10 Noroeste 27 Noroeste 0 -- -- 84
2019-10-25 08:00:00 7.5 17 Oeste 25 Oeste 0 -- -- 83
2019-10-25 07:00:00 6.8 18 Noroeste 25 Oeste 0 -- -- 85
2019-10-25 06:00:00 6.7 15 Noroeste 23 Oeste 0 -- -- 85
2019-10-25 05:00:00 6.8 15 Noroeste 26 Oeste 0 -- -- 85
2019-10-25 04:00:00 6.5 18 Oeste 24 Oeste 0 -- -- 87
2019-10-25 03:00:00 6.5 17 Oeste 24 Oeste 0 -- -- 88
2019-10-25 02:00:00 5.7 10 Noroeste 26 Oeste 0 -- -- 89
2019-10-25 01:00:00 6 0 Calma 14 Noroeste 0 -- -- 88
2019-10-25 00:00:00 6.4 9 Oeste 13 Oeste 0 -- -- 88
2019-10-24 23:00:00 6.9 8 Noroeste 23 Noroeste 0 -- -- 85
2019-10-24 22:00:00 8 18 Noroeste 34 Noroeste 0 -- -- 81
2019-10-24 21:00:00 8.2 21 Noroeste 34 Noroeste 0 -- -- 79
2019-10-24 20:00:00 8.5 13 Noroeste 36 Noroeste 0 -- -- 76
2019-10-24 19:00:00 9.5 21 Noroeste 43 Noroeste 0 -- -- 72
2019-10-24 18:00:00 11.5 28 Noroeste 45 Noroeste 0 -- -- 65
2019-10-24 17:00:00 11.2 24 Noroeste 36 Noroeste 0 -- -- 59
2019-10-24 16:00:00 10 28 Noroeste 39 Noroeste 0 -- -- 57
2019-10-24 15:00:00 9.3 24 Noroeste 36 Oeste 0 -- -- 68
2019-10-24 14:00:00 7.9 18 Noroeste 34 Oeste 0 -- -- 74
2019-10-24 13:00:00 7.6 21 Noroeste 33 Oeste 0 -- -- 76
2019-10-24 12:00:00 6.7 13 Noroeste 19 Noroeste 0 -- -- 83
2019-10-24 11:00:00 5.9 13 Noroeste 29 Noroeste 0 -- -- 85
2019-10-24 10:00:00 5.3 12 Noroeste 23 Oeste 0 -- -- 86
2019-10-24 09:00:00 4.2 10 Noroeste 22 Oeste 0 -- -- 90
2019-10-24 08:00:00 3.8 15 Oeste 34 Oeste 0 -- -- 90
2019-10-24 07:00:00 3.5 14 Oeste 28 Oeste 0 -- -- 90
2019-10-24 06:00:00 3.6 21 Oeste 30 Oeste 0 -- -- 90
2019-10-24 05:00:00 3.5 19 Oeste 31 Oeste 0 -- -- 91
2019-10-24 04:00:00 3.1 20 Oeste 33 Oeste 0 -- -- 89
2019-10-24 03:00:00 3 22 Oeste 32 Oeste 0 -- -- 86
2019-10-24 02:00:00 2.3 19 Oeste 31 Oeste 0 -- -- 91
2019-10-24 01:00:00 2.2 10 Noroeste 23 Noroeste 0 -- -- 89
2019-10-24 00:00:00 3 4 Oeste 8 Oeste 0 -- -- 88
2019-10-23 23:00:00 3.6 8 Noroeste 21 Noroeste 0 -- -- 88
2019-10-23 22:00:00 3.4 6 Norte 37 Sudoeste 0 -- -- 86
2019-10-23 21:00:00 3.3 26 Sudoeste 43 Sudoeste 0 -- -- 89
2019-10-23 20:00:00 3.2 26 Sudoeste 45 Sudoeste 0 -- -- 90
2019-10-23 19:00:00 3.5 19 Sudoeste 34 Sudoeste 0 -- -- 88
2019-10-23 18:00:00 4.7 13 Sudoeste 23 Sudoeste 0 -- -- 87
2019-10-23 17:00:00 4.7 9 Sur 20 Sur 0.2 -- -- 88
2019-10-23 16:00:00 4.2 6 Sudoeste 19 Sur 0.2 -- -- 92
2019-10-23 15:00:00 4.6 9 Sudeste 15 Sudeste 0 -- -- 90
2019-10-23 14:00:00 4.7 4 Sur 17 Sudoeste 0 -- -- 88
2019-10-23 13:00:00 4.7 2 Noroeste 20 Sudoeste 0 -- -- 83
2019-10-23 12:00:00 4.6 9 Norte 29 Oeste 0 -- -- 83
2019-10-23 11:00:00 3.7 5 Norte 29 Sudoeste 0 -- -- 88
2019-10-23 10:00:00 3 5 Nordeste 31 Sudoeste 0 -- -- 91
2019-10-23 09:00:00 2.4 16 Sudoeste 37 Sudoeste 0 -- -- 92
2019-10-23 08:00:00 3.1 2 Nordeste 15 Sudoeste 0 -- -- 95
2019-10-23 07:00:00 3.1 3 Nordeste 14 Oeste 0 -- -- 97
2019-10-23 06:00:00 2.8 5 Noroeste 22 Sudoeste 0 -- -- 95
2019-10-23 05:00:00 3.4 6 Sudoeste 9 Sudoeste 0 -- -- 93
2019-10-23 04:00:00 3.5 5 Sudoeste 10 Oeste 0.2 -- -- 96
2019-10-23 03:00:00 3.7 6 Oeste 14 Oeste 0.4 -- -- 98
2019-10-23 02:00:00 3.6 6 Oeste 10 Oeste 0.4 -- -- 98
2019-10-23 01:00:00 3.6 5 Oeste 12 Oeste 0 -- -- 98
2019-10-23 00:00:00 3.4 6 Oeste 13 Noroeste 0 -- -- 97
2019-10-22 23:00:00 3.1 7 Oeste 14 Noroeste 0 -- -- 97
2019-10-22 22:00:00 2.9 11 Oeste 21 Oeste 0 -- -- 97
2019-10-22 21:00:00 2.6 14 Oeste 28 Oeste 0 -- -- 97
2019-10-22 20:00:00 2.5 21 Noroeste 28 Noroeste 0 -- -- 96
2019-10-22 19:00:00 2.3 17 Noroeste 29 Noroeste 0.2 -- -- 97
2019-10-22 18:00:00 2.3 17 Noroeste 28 Noroeste 1.4 -- -- 97
2019-10-22 17:00:00 2.5 18 Noroeste 37 Noroeste 1.4 -- -- 96
2019-10-22 16:00:00 2.1 24 Oeste 40 Noroeste 3.2 -- -- 95
2019-10-22 15:00:00 1.6 25 Noroeste 37 Oeste 3.6 -- -- 96
2019-10-22 14:00:00 2 22 Noroeste 35 Noroeste 3 -- -- 96
2019-10-22 13:00:00 3.3 21 Noroeste 32 Oeste 2.2 -- -- 96
2019-10-22 12:00:00 4 19 Noroeste 31 Noroeste 3.4 -- -- 96
2019-10-22 11:00:00 4.4 14 Noroeste 23 Oeste 1 -- -- 95
2019-10-22 10:00:00 4.1 9 Noroeste 17 Norte 1.4 -- -- 95
2019-10-22 09:00:00 4.2 3 Norte 16 Nordeste 1.8 -- -- 96
2019-10-22 08:00:00 4.3 7 Noroeste 18 Noroeste 0 -- -- 95
2019-10-22 07:00:00 4.2 8 Noroeste 17 Oeste 0 -- -- 91
2019-10-22 06:00:00 4.3 9 Oeste 15 Oeste 0 -- -- 89
2019-10-22 05:00:00 4.2 6 Oeste 10 Oeste 0 -- -- 89
2019-10-22 04:00:00 4.8 0 Calma 8 Oeste 0 -- -- 87
2019-10-22 03:00:00 4.7 4 Oeste 9 Oeste 0 -- -- 85
2019-10-22 02:00:00 3.9 6 Oeste 8 Oeste 0 -- -- 88
2019-10-22 01:00:00 3.5 8 Oeste 11 Oeste 0 -- -- 88
2019-10-22 00:00:00 5 5 Sudoeste 16 Sur 0 -- -- 80